createdAt,value
2023-12-02T00:00:44.320Z,77.38
2023-12-02T00:03:32.134Z,77.62
2023-12-02T00:06:00.170Z,77.59
2023-12-02T00:08:27.989Z,77.84
2023-12-02T00:10:55.755Z,77.60
2023-12-02T00:13:23.527Z,77.53
2023-12-02T00:15:51.691Z,77.36
2023-12-02T00:18:19.757Z,77.63
2023-12-02T00:20:47.633Z,77.35
2023-12-02T00:23:15.395Z,77.15
2023-12-02T00:25:43.158Z,77.46
2023-12-02T00:28:10.933Z,77.34
2023-12-02T00:30:38.736Z,77.61
2023-12-02T00:33:06.681Z,77.44
2023-12-02T00:35:34.523Z,77.51
2023-12-02T00:38:02.295Z,77.68
2023-12-02T00:40:30.056Z,77.59
2023-12-02T00:42:57.810Z,77.44
2023-12-02T00:45:25.654Z,77.63
2023-12-02T00:47:53.572Z,77.82
2023-12-02T00:50:21.424Z,77.75
2023-12-02T00:52:49.104Z,77.77
2023-12-02T00:55:17.148Z,77.84
2023-12-02T00:57:44.905Z,77.69
2023-12-02T01:00:12.713Z,77.63
2023-12-02T01:02:40.539Z,77.63
2023-12-02T01:05:08.336Z,77.57
2023-12-02T01:07:36.081Z,77.50
2023-12-02T01:10:04.977Z,77.61
2023-12-02T01:12:32.732Z,77.81
2023-12-02T01:15:00.516Z,77.80
2023-12-02T01:17:28.481Z,77.68
2023-12-02T01:19:56.219Z,77.86
2023-12-02T01:22:23.981Z,77.75
2023-12-02T01:24:51.895Z,77.78
2023-12-02T01:27:19.635Z,77.57
2023-12-02T01:29:50.888Z,77.79
2023-12-02T01:32:19.441Z,77.68
2023-12-02T01:34:47.235Z,77.77
2023-12-02T01:37:14.969Z,77.85
2023-12-02T01:39:42.750Z,77.91
2023-12-02T01:42:10.564Z,77.92
2023-12-02T01:44:38.362Z,77.89
2023-12-02T01:47:06.026Z,77.84
2023-12-02T01:49:33.800Z,77.57
2023-12-02T01:52:01.661Z,77.63
2023-12-02T01:54:29.437Z,77.88
2023-12-02T01:56:57.414Z,77.93
2023-12-02T01:59:25.255Z,77.82
2023-12-02T02:01:53.177Z,77.72
2023-12-02T02:04:21.174Z,77.76
2023-12-02T02:06:49.056Z,77.71
2023-12-02T02:09:16.874Z,77.74
2023-12-02T02:11:44.690Z,77.59
2023-12-02T02:14:12.458Z,77.59
2023-12-02T02:16:40.218Z,77.86
2023-12-02T02:19:08.008Z,77.85
2023-12-02T02:21:35.925Z,77.82
2023-12-02T02:24:03.732Z,77.64
2023-12-02T02:26:31.486Z,77.78
2023-12-02T02:28:59.175Z,77.71
2023-12-02T02:31:27.006Z,77.59
2023-12-02T02:33:54.796Z,77.45
2023-12-02T02:36:22.610Z,77.42
2023-12-02T02:38:50.502Z,77.66
2023-12-02T02:41:18.287Z,77.58
2023-12-02T02:43:45.977Z,77.83
2023-12-02T02:46:13.694Z,77.82
2023-12-02T02:48:41.496Z,77.66
2023-12-02T02:51:09.322Z,77.72
2023-12-02T02:53:36.983Z,77.78
2023-12-02T02:56:04.648Z,77.79
2023-12-02T02:58:32.728Z,77.67
2023-12-02T03:01:00.592Z,77.90
2023-12-02T03:03:29.500Z,77.93
2023-12-02T03:05:57.685Z,77.91
2023-12-02T03:08:25.417Z,77.96
2023-12-02T03:10:53.185Z,78.00
2023-12-02T03:13:20.954Z,77.93
2023-12-02T03:15:49.253Z,77.90
2023-12-02T03:18:17.199Z,77.70
2023-12-02T03:20:45.614Z,77.63
2023-12-02T03:23:13.255Z,77.97
2023-12-02T03:25:40.993Z,78.01
2023-12-02T03:28:08.661Z,78.18
2023-12-02T03:30:36.414Z,77.96
2023-12-02T03:33:04.372Z,77.83
2023-12-02T03:35:32.153Z,77.93
2023-12-02T03:37:59.921Z,77.74
2023-12-02T03:40:27.793Z,77.77
2023-12-02T03:42:55.855Z,77.61
2023-12-02T03:45:23.684Z,77.54
2023-12-02T03:47:51.618Z,77.67
2023-12-02T03:50:19.966Z,77.81
2023-12-02T03:52:47.741Z,77.75
2023-12-02T03:55:15.502Z,77.96
2023-12-02T03:57:43.273Z,78.00
2023-12-02T04:00:20.717Z,77.80
2023-12-02T04:02:48.612Z,77.84
2023-12-02T04:05:16.383Z,77.77
2023-12-02T04:07:44.336Z,77.74
2023-12-02T04:10:12.525Z,77.99
2023-12-02T04:12:40.210Z,78.18
2023-12-02T04:15:08.001Z,78.16
2023-12-02T04:17:35.784Z,77.85
2023-12-02T04:20:10.330Z,77.88
2023-12-02T04:22:40.319Z,77.92
2023-12-02T04:25:08.216Z,77.91
2023-12-02T04:27:36.000Z,77.93
2023-12-02T04:30:05.562Z,77.76
2023-12-02T04:32:33.489Z,77.96
2023-12-02T04:35:01.326Z,77.95
2023-12-02T04:37:29.104Z,77.99
2023-12-02T04:39:56.856Z,78.01
2023-12-02T04:42:24.651Z,78.03
2023-12-02T04:44:52.378Z,78.05
2023-12-02T04:47:20.145Z,78.04
2023-12-02T04:49:48.178Z,77.97
2023-12-02T04:52:15.981Z,77.83
2023-12-02T04:54:43.753Z,77.78
2023-12-02T04:57:11.531Z,78.07
2023-12-02T04:59:39.369Z,78.10
2023-12-02T05:02:07.283Z,78.05
2023-12-02T05:04:35.313Z,78.17
2023-12-02T05:07:03.092Z,78.20
2023-12-02T05:09:31.106Z,78.05
2023-12-02T05:11:58.951Z,77.94
2023-12-02T05:14:26.916Z,77.94
2023-12-02T05:16:54.640Z,77.99
2023-12-02T05:19:22.808Z,78.28
2023-12-02T05:21:50.923Z,78.10
2023-12-02T05:24:18.686Z,78.17
2023-12-02T05:26:47.033Z,78.02
2023-12-02T05:29:14.996Z,78.25
2023-12-02T05:31:42.763Z,77.93
2023-12-02T05:34:10.583Z,77.84
2023-12-02T05:36:38.410Z,77.89
2023-12-02T05:39:06.119Z,78.10
2023-12-02T05:41:33.922Z,77.83
2023-12-02T05:44:01.688Z,78.33
2023-12-02T05:46:29.446Z,78.18
2023-12-02T05:48:57.413Z,78.32
2023-12-02T05:51:25.316Z,78.02
2023-12-02T05:53:53.152Z,78.02
2023-12-02T05:56:21.326Z,78.00
2023-12-02T05:58:49.611Z,78.17
2023-12-02T06:01:17.371Z,78.17
2023-12-02T06:03:45.182Z,78.15
2023-12-02T06:06:13.034Z,78.15
2023-12-02T06:08:40.862Z,78.21
2023-12-02T06:11:09.144Z,78.32
2023-12-02T06:13:36.806Z,78.17
2023-12-02T06:16:04.666Z,78.22
2023-12-02T06:18:32.476Z,77.97
2023-12-02T06:21:00.348Z,77.97
2023-12-02T06:23:28.279Z,78.05
2023-12-02T06:25:56.030Z,78.18
2023-12-02T06:28:23.798Z,77.94
2023-12-02T06:30:51.644Z,78.16
2023-12-02T06:33:19.684Z,78.08
2023-12-02T06:35:47.495Z,78.10
2023-12-02T06:38:15.370Z,78.02
2023-12-02T06:40:43.136Z,77.88
2023-12-02T06:43:12.018Z,77.73
2023-12-02T06:45:39.856Z,77.92
2023-12-02T06:48:07.770Z,77.95
2023-12-02T06:50:35.648Z,77.98
2023-12-02T06:53:03.490Z,78.14
2023-12-02T06:55:34.014Z,78.16
2023-12-02T06:58:01.834Z,78.17
2023-12-02T07:00:30.164Z,77.93
2023-12-02T07:02:57.993Z,78.02
2023-12-02T07:05:26.297Z,77.95
2023-12-02T07:07:54.061Z,77.90
2023-12-02T07:10:21.822Z,77.98
2023-12-02T07:12:49.608Z,78.10
2023-12-02T07:15:17.456Z,78.02
2023-12-02T07:17:45.348Z,78.06
2023-12-02T07:20:15.567Z,78.03
2023-12-02T07:22:43.304Z,78.00
2023-12-02T07:25:11.078Z,78.07
2023-12-02T07:27:38.848Z,78.04
2023-12-02T07:32:37.446Z,77.76
2023-12-02T07:35:05.619Z,77.97
2023-12-02T07:37:33.373Z,78.14
2023-12-02T07:40:01.139Z,78.17
2023-12-02T07:42:29.020Z,78.05
2023-12-02T07:44:56.779Z,78.12
2023-12-02T07:47:25.479Z,77.91
2023-12-02T07:49:53.334Z,77.83
2023-12-02T07:52:21.096Z,78.01
2023-12-02T07:54:48.856Z,78.03
2023-12-02T07:57:16.629Z,77.76
2023-12-02T07:59:44.375Z,77.63
2023-12-02T08:02:12.262Z,77.84
2023-12-02T08:04:40.129Z,78.19
2023-12-02T08:07:09.303Z,78.09
2023-12-02T08:09:37.076Z,78.07
2023-12-02T08:12:05.768Z,78.06
2023-12-02T08:14:33.639Z,77.92
2023-12-02T08:17:01.429Z,77.82
2023-12-02T08:19:29.274Z,77.77
2023-12-02T08:21:57.015Z,77.79
2023-12-02T08:24:24.777Z,78.11
2023-12-02T08:26:52.552Z,77.99
2023-12-02T08:29:20.242Z,78.16
2023-12-02T08:31:47.997Z,78.29
2023-12-02T08:34:16.352Z,77.98
2023-12-02T08:36:44.313Z,78.14
2023-12-02T08:39:12.019Z,78.15
2023-12-02T08:41:39.857Z,78.19
2023-12-02T08:44:08.262Z,78.11
2023-12-02T08:46:36.733Z,78.15
2023-12-02T08:49:04.525Z,78.15
2023-12-02T08:51:32.349Z,78.48
2023-12-02T08:54:00.175Z,78.49
2023-12-02T08:56:28.177Z,78.58
2023-12-02T08:58:56.002Z,78.49
2023-12-02T09:01:23.807Z,78.55
2023-12-02T09:03:51.633Z,78.58
2023-12-02T09:06:19.434Z,78.39
2023-12-02T09:08:47.207Z,78.16
2023-12-02T09:11:15.118Z,78.42
2023-12-02T09:13:47.989Z,78.53
2023-12-02T09:16:15.916Z,78.32
2023-12-02T09:18:43.901Z,78.49
2023-12-02T09:21:11.648Z,78.51
2023-12-02T09:23:39.410Z,78.37
2023-12-02T09:26:07.941Z,78.44
2023-12-02T09:28:36.418Z,78.27
2023-12-02T09:31:08.317Z,78.20
2023-12-02T09:33:38.396Z,78.43
2023-12-02T09:36:06.430Z,78.40
2023-12-02T09:38:34.249Z,78.48
2023-12-02T09:41:02.159Z,78.20
2023-12-02T09:43:30.141Z,78.24
2023-12-02T09:45:57.993Z,78.18
2023-12-02T09:48:25.766Z,78.06
2023-12-02T09:50:53.522Z,78.37
2023-12-02T09:53:21.694Z,78.36
2023-12-02T09:55:49.530Z,78.29
2023-12-02T09:58:17.542Z,78.36
2023-12-02T10:00:46.016Z,78.45
2023-12-02T10:03:13.781Z,78.49
2023-12-02T10:05:41.571Z,78.50
2023-12-02T10:08:09.497Z,78.31
2023-12-02T10:10:37.507Z,78.30
2023-12-02T10:13:05.232Z,78.35
2023-12-02T10:15:34.231Z,78.10
2023-12-02T10:18:05.173Z,77.96
2023-12-02T10:20:34.163Z,77.97
2023-12-02T10:23:01.950Z,78.24
2023-12-02T10:25:30.646Z,78.38
2023-12-02T10:27:58.441Z,78.24
2023-12-02T10:30:26.141Z,78.34
2023-12-02T10:32:53.964Z,78.48
2023-12-02T10:35:21.855Z,78.39
2023-12-02T10:37:49.785Z,78.38
2023-12-02T10:40:17.609Z,77.92
2023-12-02T10:42:45.370Z,77.93
2023-12-02T10:45:13.135Z,78.19
2023-12-02T10:47:40.939Z,78.53
2023-12-02T10:50:08.892Z,78.81
2023-12-02T10:55:07.269Z,78.69
2023-12-02T10:57:35.144Z,78.53
2023-12-02T11:00:04.651Z,78.50
2023-12-02T11:02:32.499Z,78.29
2023-12-02T11:05:04.172Z,78.44
2023-12-02T11:07:31.847Z,78.54
2023-12-02T11:09:59.591Z,78.56
2023-12-02T11:12:27.389Z,78.69
2023-12-02T11:14:55.441Z,78.60
2023-12-02T11:17:24.526Z,78.67
2023-12-02T11:19:52.590Z,78.56
2023-12-02T11:22:20.343Z,78.25
2023-12-02T11:24:48.110Z,78.29
2023-12-02T11:27:15.882Z,78.33
2023-12-02T11:29:43.635Z,78.62
2023-12-02T11:32:11.296Z,78.45
2023-12-02T11:34:38.990Z,78.41
2023-12-02T11:37:06.937Z,78.40
2023-12-02T11:39:35.595Z,78.41
2023-12-02T11:42:04.227Z,78.31
2023-12-02T11:44:31.970Z,78.20
2023-12-02T11:46:59.738Z,78.21
2023-12-02T11:49:27.671Z,78.39
2023-12-02T11:51:55.560Z,78.44
2023-12-02T11:54:23.351Z,78.27
2023-12-02T11:56:51.242Z,78.41
2023-12-02T11:59:21.217Z,78.49
2023-12-02T12:01:49.877Z,78.52
2023-12-02T12:04:17.816Z,78.58
2023-12-02T12:06:46.030Z,78.25
2023-12-02T12:09:13.875Z,78.21
2023-12-02T12:11:41.794Z,78.28
2023-12-02T12:14:09.539Z,78.51
2023-12-02T12:16:42.839Z,78.55
2023-12-02T12:19:11.336Z,78.85
2023-12-02T12:21:39.203Z,78.76
2023-12-02T12:24:06.970Z,78.69
2023-12-02T12:26:34.706Z,78.47
2023-12-02T12:29:02.585Z,78.37
2023-12-02T12:31:32.164Z,78.51
2023-12-02T12:34:01.600Z,78.78
2023-12-02T12:36:29.954Z,78.83
2023-12-02T12:38:58.381Z,78.77
2023-12-02T12:41:26.828Z,78.81
2023-12-02T12:43:55.099Z,78.96
2023-12-02T12:46:23.270Z,78.68
2023-12-02T12:48:51.080Z,78.66
2023-12-02T12:51:18.942Z,78.72
2023-12-02T12:53:47.178Z,78.76
2023-12-02T12:56:15.150Z,78.78
2023-12-02T12:58:43.118Z,78.69
2023-12-02T13:01:10.880Z,78.90
2023-12-02T13:03:38.767Z,79.04
2023-12-02T13:06:06.654Z,79.15
2023-12-02T13:08:35.707Z,79.07
2023-12-02T13:11:12.115Z,78.97
2023-12-02T13:13:48.764Z,78.84
2023-12-02T13:16:18.062Z,78.92
2023-12-02T13:18:45.992Z,79.05
2023-12-02T13:21:13.863Z,79.11
2023-12-02T13:23:41.645Z,79.01
2023-12-02T13:26:09.406Z,78.85
2023-12-02T13:28:39.315Z,78.96
2023-12-02T13:31:07.083Z,78.92
2023-12-02T13:33:34.973Z,78.81
2023-12-02T13:36:03.067Z,79.02
2023-12-02T13:38:30.996Z,79.11
2023-12-02T13:40:59.311Z,79.19
2023-12-02T13:43:27.158Z,79.19
2023-12-02T13:45:56.438Z,79.30
2023-12-02T13:48:25.347Z,79.29
2023-12-02T13:50:53.096Z,79.25
2023-12-02T13:53:20.853Z,79.15
2023-12-02T13:55:48.544Z,79.05
2023-12-02T13:58:16.290Z,79.08
2023-12-02T14:00:44.045Z,79.44
2023-12-02T14:03:11.946Z,79.45
2023-12-02T14:05:40.975Z,79.45
2023-12-02T14:08:08.670Z,79.49
2023-12-02T14:10:36.428Z,79.28
2023-12-02T14:13:07.055Z,79.42
2023-12-02T14:15:34.764Z,79.44
2023-12-02T14:18:03.196Z,79.24
2023-12-02T14:20:31.373Z,79.23
2023-12-02T14:22:59.137Z,79.51
2023-12-02T14:25:26.911Z,79.40
2023-12-02T14:27:54.600Z,79.65
2023-12-02T14:30:23.625Z,79.70
2023-12-02T14:32:51.482Z,79.74
2023-12-02T14:35:19.300Z,79.82
2023-12-02T14:37:47.066Z,79.97
2023-12-02T14:40:14.843Z,79.77
2023-12-02T14:42:42.758Z,79.85
2023-12-02T14:45:10.585Z,79.71
2023-12-02T14:47:38.521Z,79.89
2023-12-02T14:50:06.692Z,80.00
2023-12-02T14:52:34.460Z,79.84
2023-12-02T14:55:02.669Z,79.91
2023-12-02T14:57:32.546Z,79.72
2023-12-02T15:00:01.201Z,79.68
2023-12-02T15:02:29.316Z,80.22
2023-12-02T15:04:57.069Z,79.78
2023-12-02T15:07:25.446Z,79.98
2023-12-02T15:09:53.212Z,80.16
2023-12-02T15:12:21.394Z,80.27
2023-12-02T15:14:49.254Z,80.08
2023-12-02T15:17:17.017Z,79.85
2023-12-02T15:19:44.733Z,79.88
2023-12-02T15:22:12.555Z,80.04
2023-12-02T15:24:40.427Z,79.79
2023-12-02T15:27:08.406Z,80.05
2023-12-02T15:29:36.143Z,80.09
2023-12-02T15:32:04.213Z,80.22
2023-12-02T15:34:32.558Z,80.13
2023-12-02T15:37:00.660Z,79.89
2023-12-02T15:39:28.571Z,80.18
2023-12-02T15:41:56.498Z,80.24
2023-12-02T15:44:24.283Z,80.23
2023-12-02T15:46:51.953Z,80.30
2023-12-02T15:49:19.761Z,80.30
2023-12-02T15:51:47.681Z,80.29
2023-12-02T15:54:17.090Z,80.05
2023-12-02T15:56:44.842Z,79.84
2023-12-02T15:59:12.512Z,79.98
2023-12-02T16:01:40.263Z,80.11
2023-12-02T16:04:10.178Z,80.02
2023-12-02T16:06:39.988Z,80.12
2023-12-02T16:09:07.881Z,80.22
2023-12-02T16:11:36.322Z,79.92
2023-12-02T16:14:04.122Z,79.87
2023-12-02T16:16:32.630Z,79.82
2023-12-02T16:19:03.094Z,79.65
2023-12-02T16:21:31.756Z,79.77
2023-12-02T16:23:59.569Z,80.01
2023-12-02T16:26:28.436Z,79.98
2023-12-02T16:28:56.407Z,79.94
2023-12-02T16:31:24.763Z,79.93
2023-12-02T16:33:52.583Z,79.92
2023-12-02T16:36:20.747Z,80.00
2023-12-02T16:38:48.594Z,79.77
2023-12-02T16:41:16.356Z,79.74
2023-12-02T16:43:44.050Z,79.98
2023-12-02T16:46:11.794Z,80.16
2023-12-02T16:48:39.632Z,79.93
2023-12-02T16:51:08.901Z,80.03
2023-12-02T16:53:37.629Z,80.19
2023-12-02T16:56:14.625Z,80.20
2023-12-02T16:58:48.836Z,80.20
2023-12-02T17:01:16.598Z,80.17
2023-12-02T17:03:44.379Z,80.13
2023-12-02T17:06:12.431Z,80.22
2023-12-02T17:08:40.287Z,80.46
2023-12-02T17:11:08.062Z,80.41
2023-12-02T17:13:35.816Z,80.34
2023-12-02T17:16:04.504Z,80.26
2023-12-02T17:18:32.338Z,80.29
2023-12-02T17:21:00.277Z,80.30
2023-12-02T17:23:28.206Z,80.23
2023-12-02T17:25:56.327Z,80.14
2023-12-02T17:28:24.139Z,80.02
2023-12-02T17:30:52.523Z,80.63
2023-12-02T17:33:20.337Z,80.50
2023-12-02T17:35:48.167Z,80.56
2023-12-02T17:38:16.121Z,80.65
2023-12-02T17:40:43.996Z,80.67
2023-12-02T17:43:11.770Z,80.24
2023-12-02T17:45:39.564Z,80.16
2023-12-02T17:48:07.320Z,80.31
2023-12-02T17:50:35.259Z,80.67
2023-12-02T17:53:03.021Z,80.54
2023-12-02T17:55:30.780Z,80.41
2023-12-02T17:57:58.544Z,80.30
2023-12-02T18:00:26.328Z,80.56
2023-12-02T18:02:54.580Z,80.37
2023-12-02T18:05:22.533Z,80.49
2023-12-02T18:07:50.335Z,80.55
2023-12-02T18:10:18.088Z,80.54
2023-12-02T18:12:46.090Z,80.86
2023-12-02T18:15:14.051Z,80.83
2023-12-02T18:17:41.893Z,80.54
2023-12-02T18:20:10.279Z,80.71
2023-12-02T18:22:38.129Z,80.69
2023-12-02T18:25:05.893Z,80.53
2023-12-02T18:27:33.697Z,80.48
2023-12-02T18:30:01.571Z,80.72
2023-12-02T18:32:29.403Z,80.85
2023-12-02T18:34:58.615Z,80.68
2023-12-02T18:37:26.352Z,80.83
2023-12-02T18:39:54.113Z,80.98
2023-12-02T18:42:21.933Z,80.89
2023-12-02T18:44:49.779Z,80.48
2023-12-02T18:47:17.611Z,80.49
2023-12-02T18:49:45.397Z,80.77
2023-12-02T18:52:13.050Z,80.87
2023-12-02T18:54:40.828Z,81.00
2023-12-02T18:57:08.462Z,81.18
2023-12-02T18:59:36.233Z,81.47
2023-12-02T19:02:05.252Z,81.83
2023-12-02T19:04:33.173Z,81.69
2023-12-02T19:07:01.267Z,81.76
2023-12-02T19:09:29.162Z,81.86
2023-12-02T19:11:56.893Z,82.01
2023-12-02T19:14:24.693Z,81.97
2023-12-02T19:16:52.421Z,82.09
2023-12-02T19:19:20.703Z,82.31
2023-12-02T19:21:48.607Z,82.31
2023-12-02T19:24:16.493Z,82.25
2023-12-02T19:26:44.296Z,82.37
2023-12-02T19:29:15.845Z,82.58
2023-12-02T19:31:43.638Z,82.58
2023-12-02T19:34:11.556Z,82.69
2023-12-02T19:36:39.454Z,82.84
2023-12-02T19:39:07.360Z,82.90
2023-12-02T19:41:35.194Z,83.00
2023-12-02T19:44:02.947Z,83.05
2023-12-02T19:46:31.563Z,83.01
2023-12-02T19:48:59.354Z,83.23
2023-12-02T19:51:27.287Z,83.37
2023-12-02T19:53:55.434Z,83.26
2023-12-02T19:56:23.196Z,83.21
2023-12-02T19:58:52.506Z,82.77
2023-12-02T20:01:20.466Z,82.83
2023-12-02T20:03:48.288Z,83.03
2023-12-02T20:06:16.133Z,83.05
2023-12-02T20:08:43.967Z,83.09
2023-12-02T20:11:11.726Z,83.24
2023-12-02T20:13:39.587Z,83.05
2023-12-02T20:16:07.457Z,82.95
2023-12-02T20:18:35.269Z,83.13
2023-12-02T20:21:03.086Z,83.10
2023-12-02T20:23:30.961Z,83.27
2023-12-02T20:25:58.723Z,83.52
2023-12-02T20:28:26.481Z,83.34
2023-12-02T20:30:55.887Z,83.21
2023-12-02T20:33:23.765Z,83.05
2023-12-02T20:35:51.640Z,82.99
2023-12-02T20:38:19.486Z,83.24
2023-12-02T20:40:47.356Z,83.45
2023-12-02T20:43:17.875Z,83.36
2023-12-02T20:45:45.718Z,83.14
2023-12-02T20:48:14.736Z,83.24
2023-12-02T20:50:42.602Z,83.09
2023-12-02T20:53:12.110Z,83.18
2023-12-02T20:55:39.873Z,83.17
2023-12-02T20:58:07.678Z,83.32
2023-12-02T21:00:36.490Z,83.48
2023-12-02T21:03:04.327Z,83.28
2023-12-02T21:05:32.212Z,83.04
2023-12-02T21:08:00.147Z,83.02
2023-12-02T21:10:27.994Z,83.07
2023-12-02T21:12:55.757Z,83.24
2023-12-02T21:15:23.669Z,83.16
2023-12-02T21:17:51.539Z,82.98
2023-12-02T21:20:19.365Z,83.05
2023-12-02T21:22:48.762Z,82.96
2023-12-02T21:25:16.533Z,83.02
2023-12-02T21:27:44.296Z,83.07
2023-12-02T21:30:12.488Z,83.19
2023-12-02T21:32:40.349Z,82.90
2023-12-02T21:35:08.091Z,83.07
2023-12-02T21:37:35.785Z,82.88
2023-12-02T21:40:04.565Z,82.94
2023-12-02T21:42:32.337Z,82.81
2023-12-02T21:45:00.168Z,83.08
2023-12-02T21:47:28.211Z,83.18
2023-12-02T21:49:57.188Z,82.89
2023-12-02T21:52:24.930Z,82.75
2023-12-02T21:54:52.713Z,82.75
2023-12-02T21:57:20.447Z,82.86
2023-12-02T21:59:48.319Z,82.85
2023-12-02T22:02:16.214Z,83.08
2023-12-02T22:04:44.102Z,83.17
2023-12-02T22:07:11.996Z,82.87
2023-12-02T22:09:40.146Z,82.58
2023-12-02T22:12:09.001Z,82.70
2023-12-02T22:14:36.889Z,82.77
2023-12-02T22:17:05.508Z,82.97
2023-12-02T22:19:33.732Z,82.94
2023-12-02T22:22:01.554Z,83.04
2023-12-02T22:24:31.913Z,82.57
2023-12-02T22:26:59.741Z,82.84
2023-12-02T22:29:27.510Z,82.96
2023-12-02T22:31:55.267Z,82.91
2023-12-02T22:34:23.082Z,82.87
2023-12-02T22:36:50.834Z,83.07
2023-12-02T22:39:19.232Z,83.08
2023-12-02T22:41:46.967Z,82.57
2023-12-02T22:44:14.806Z,82.78
2023-12-02T22:46:42.570Z,83.09
2023-12-02T22:49:10.487Z,83.28
2023-12-02T22:51:39.536Z,83.04
2023-12-02T22:54:09.650Z,83.26
2023-12-02T22:56:38.744Z,83.10
2023-12-02T22:59:06.612Z,83.10
2023-12-02T23:01:35.767Z,82.74
2023-12-02T23:04:03.711Z,83.16
2023-12-02T23:06:31.838Z,83.07
2023-12-02T23:08:59.716Z,83.20
2023-12-02T23:11:27.483Z,83.04
2023-12-02T23:13:56.573Z,82.81
2023-12-02T23:16:24.341Z,83.06
2023-12-02T23:18:52.143Z,82.89
2023-12-02T23:21:20.007Z,82.88
2023-12-02T23:23:47.831Z,82.83
2023-12-02T23:26:15.599Z,82.90
2023-12-02T23:28:43.768Z,82.58
2023-12-02T23:31:11.531Z,82.75
2023-12-02T23:33:39.820Z,82.79
2023-12-02T23:36:07.786Z,82.80
2023-12-02T23:38:37.903Z,83.08
2023-12-02T23:41:05.765Z,82.93
2023-12-02T23:43:34.141Z,82.73
2023-12-02T23:46:02.044Z,82.45
2023-12-02T23:48:30.164Z,82.69
2023-12-02T23:50:58.055Z,82.73
2023-12-02T23:53:25.764Z,82.77
2023-12-02T23:55:53.481Z,82.91
2023-12-02T23:58:21.249Z,82.87
